createdAt,value
2023-04-18T05:01:14.980Z,25.00
2023-04-18T05:02:14.803Z,25.00
2023-04-18T05:03:14.824Z,25.00
2023-04-18T05:04:15.059Z,25.00
2023-04-18T05:05:14.653Z,25.00
2023-04-18T05:06:14.701Z,25.00
2023-04-18T05:07:14.658Z,0.00
2023-04-18T05:08:14.660Z,0.00
2023-04-18T05:09:14.616Z,0.00
2023-04-18T05:10:14.654Z,0.00
2023-04-18T05:11:14.624Z,0.00
2023-04-18T05:12:14.603Z,0.00
2023-04-18T05:13:14.611Z,0.00
2023-04-18T05:14:14.840Z,0.00
2023-04-18T05:15:14.584Z,0.00
2023-04-18T05:16:14.630Z,0.00
2023-04-18T05:17:14.581Z,0.00
2023-04-18T05:18:14.653Z,0.00
2023-04-18T05:19:14.681Z,0.00
2023-04-18T05:20:14.719Z,0.00
2023-04-18T05:21:14.788Z,0.00
2023-04-18T05:22:14.950Z,0.00
2023-04-18T05:23:14.871Z,0.00
2023-04-18T05:24:15.506Z,0.00
2023-04-18T05:25:14.969Z,0.00
2023-04-18T05:26:14.948Z,0.00
2023-04-18T05:27:17.163Z,0.00
2023-04-18T05:28:14.924Z,0.00
2023-04-18T05:29:14.944Z,0.00
2023-04-18T05:30:14.981Z,0.00
2023-04-18T05:31:15.035Z,0.00
2023-04-18T05:32:14.913Z,0.00
2023-04-18T05:33:14.981Z,0.00
2023-04-18T05:34:15.010Z,0.00
2023-04-18T05:35:15.210Z,17.66
2023-04-18T05:36:14.970Z,25.37
2023-04-18T05:37:15.090Z,26.82
2023-04-18T05:38:15.109Z,32.80
2023-04-18T05:39:14.886Z,25.57
2023-04-18T05:40:15.887Z,28.28
2023-04-18T05:41:14.950Z,25.06
2023-04-18T05:42:14.848Z,25.15
2023-04-18T05:43:14.931Z,25.00
2023-04-18T05:44:14.878Z,26.50
2023-04-18T05:45:14.846Z,27.76
2023-04-18T05:46:15.030Z,25.54
2023-04-18T05:47:14.877Z,24.90
2023-04-18T05:48:14.843Z,26.37
2023-04-18T05:49:14.888Z,25.00
2023-04-18T05:50:14.854Z,25.43
2023-04-18T05:51:14.954Z,27.13
2023-04-18T05:52:15.056Z,25.23
2023-04-18T05:53:14.875Z,25.86
2023-04-18T05:54:14.900Z,26.46
2023-04-18T05:55:14.823Z,26.68
2023-04-18T05:56:14.902Z,26.98
2023-04-18T05:57:14.776Z,28.36
2023-04-18T05:58:14.789Z,30.47
2023-04-18T05:59:14.757Z,29.28
2023-04-18T06:00:14.756Z,29.21
2023-04-18T06:01:15.472Z,32.16
2023-04-18T06:02:15.154Z,31.18
2023-04-18T06:03:14.942Z,31.34
2023-04-18T06:04:15.072Z,31.58
2023-04-18T06:05:14.911Z,30.40
2023-04-18T06:06:14.855Z,33.00
2023-04-18T06:07:15.610Z,30.04
2023-04-18T06:08:14.730Z,31.23
2023-04-18T06:09:23.144Z,33.36
2023-04-18T06:10:14.740Z,33.73
2023-04-18T06:11:14.829Z,34.16
2023-04-18T06:12:14.830Z,34.51
2023-04-18T06:13:14.904Z,34.04
2023-04-18T06:14:15.184Z,34.75
2023-04-18T06:15:14.935Z,35.32
2023-04-18T06:16:15.001Z,36.40
2023-04-18T06:17:14.953Z,36.44
2023-04-18T06:18:14.993Z,36.51
2023-04-18T06:19:15.008Z,36.20
2023-04-18T06:20:15.011Z,36.26
2023-04-18T06:21:15.029Z,36.21
2023-04-18T06:22:15.015Z,35.60
2023-04-18T06:23:14.972Z,35.62
2023-04-18T06:24:15.210Z,37.26
2023-04-18T06:25:14.966Z,37.66
2023-04-18T06:26:14.988Z,37.36
2023-04-18T06:27:27.825Z,37.19
2023-04-18T06:28:15.985Z,37.42
2023-04-18T06:29:14.952Z,37.61
2023-04-18T06:30:14.984Z,37.54
2023-04-18T06:31:15.146Z,38.44
2023-04-18T06:32:14.956Z,39.13
2023-04-18T06:33:14.916Z,39.67
2023-04-18T06:34:15.260Z,39.24
2023-04-18T06:35:14.906Z,38.96
2023-04-18T06:36:14.924Z,36.46
2023-04-18T06:37:14.969Z,36.40
2023-04-18T06:38:14.903Z,36.22
2023-04-18T06:39:14.880Z,35.58
2023-04-18T06:40:14.866Z,34.93
2023-04-18T06:41:15.443Z,34.66
2023-04-18T06:42:14.886Z,34.45
2023-04-18T06:43:14.868Z,35.65
2023-04-18T06:44:14.873Z,34.57
2023-04-18T06:45:14.833Z,33.76
2023-04-18T06:46:14.921Z,33.82
2023-04-18T06:47:14.854Z,32.90
2023-04-18T06:48:14.868Z,31.87
2023-04-18T06:49:14.808Z,31.75
2023-04-18T06:50:14.845Z,32.08
2023-04-18T06:51:14.798Z,31.19
2023-04-18T06:52:14.806Z,29.53
2023-04-18T06:53:14.789Z,31.51
2023-04-18T06:54:14.865Z,28.33
2023-04-18T06:55:14.793Z,28.67
2023-04-18T06:56:14.737Z,29.03
2023-04-18T06:57:14.779Z,28.39
2023-04-18T06:58:14.791Z,31.74
2023-04-18T06:59:14.944Z,30.90
2023-04-18T07:00:14.893Z,32.83
2023-04-18T07:01:14.994Z,31.91
2023-04-18T07:02:14.982Z,33.07
2023-04-18T07:03:15.149Z,37.50
2023-04-18T07:04:15.642Z,35.02
2023-04-18T07:05:15.054Z,38.97
2023-04-18T07:06:15.086Z,39.75
2023-04-18T07:07:15.053Z,38.06
2023-04-18T07:08:15.099Z,35.60
2023-04-18T07:09:15.090Z,29.24
2023-04-18T07:10:15.098Z,30.65
2023-04-18T07:11:15.209Z,34.81
2023-04-18T07:12:15.116Z,26.45
2023-04-18T07:13:15.172Z,26.94
2023-04-18T07:14:15.261Z,26.94
2023-04-18T07:15:15.154Z,26.92
2023-04-18T07:16:15.181Z,25.15
2023-04-18T07:17:15.188Z,27.02
2023-04-18T07:18:23.284Z,25.00
2023-04-18T07:19:16.188Z,25.31
2023-04-18T07:20:15.252Z,25.49
2023-04-18T07:21:15.122Z,25.18
2023-04-18T07:22:15.150Z,26.05
2023-04-18T07:23:15.126Z,25.80
2023-04-18T07:24:15.172Z,29.62
2023-04-18T07:25:15.308Z,25.51
2023-04-18T07:26:15.159Z,26.18
2023-04-18T07:27:15.104Z,33.63
2023-04-18T07:28:15.124Z,34.24
2023-04-18T07:29:15.074Z,61.53
2023-04-18T07:30:15.106Z,103.54
2023-04-18T07:31:15.117Z,117.26
2023-04-18T07:32:15.146Z,127.98
2023-04-18T07:33:15.073Z,134.36
2023-04-18T07:34:15.399Z,124.36
2023-04-18T07:35:15.193Z,124.25
2023-04-18T07:36:15.019Z,128.92
2023-04-18T07:37:15.257Z,134.31
2023-04-18T07:38:15.300Z,133.89
2023-04-18T07:39:15.177Z,134.46
2023-04-18T07:40:15.307Z,135.98
2023-04-18T07:41:15.273Z,134.68
2023-04-18T07:42:15.346Z,125.76
2023-04-18T07:43:15.329Z,125.83
2023-04-18T07:44:15.407Z,123.00
2023-04-18T07:45:15.340Z,129.64
2023-04-18T07:46:15.376Z,136.28
2023-04-18T07:47:15.333Z,129.36
2023-04-18T07:48:15.378Z,133.90
2023-04-18T07:49:15.564Z,137.44
2023-04-18T07:50:15.384Z,138.66
2023-04-18T07:51:15.355Z,126.90
2023-04-18T07:52:15.375Z,129.15
2023-04-18T07:53:15.321Z,135.23
2023-04-18T07:54:15.429Z,136.44
2023-04-18T07:55:15.373Z,136.23
2023-04-18T07:56:15.469Z,133.86
2023-04-18T07:57:15.532Z,132.76
2023-04-18T07:58:15.588Z,129.45
2023-04-18T07:59:15.937Z,132.85
2023-04-18T08:00:15.674Z,127.60
2023-04-18T08:01:15.699Z,126.78
2023-04-18T08:02:15.821Z,127.02
2023-04-18T08:03:16.154Z,126.33
2023-04-18T08:04:16.000Z,126.65
2023-04-18T08:05:15.989Z,124.97
2023-04-18T08:06:16.018Z,126.76
2023-04-18T08:07:16.091Z,127.32
2023-04-18T08:08:16.164Z,128.76
2023-04-18T08:09:16.323Z,128.26
2023-04-18T08:10:16.266Z,130.01
2023-04-18T08:11:16.297Z,129.18
2023-04-18T08:12:16.367Z,129.26
2023-04-18T08:13:16.483Z,127.25
2023-04-18T08:14:16.510Z,128.33
2023-04-18T08:15:16.521Z,127.24
2023-04-18T08:16:17.645Z,126.10
2023-04-18T08:17:16.610Z,121.70
2023-04-18T08:18:16.701Z,123.39
2023-04-18T08:19:16.751Z,118.85
2023-04-18T08:20:16.771Z,111.94
2023-04-18T08:21:16.839Z,111.29
2023-04-18T08:22:16.859Z,108.82
2023-04-18T08:23:16.929Z,108.22
2023-04-18T08:24:16.948Z,108.34
2023-04-18T08:25:17.030Z,106.64
2023-04-18T08:26:17.303Z,109.98
2023-04-18T08:27:17.163Z,110.39
2023-04-18T08:28:17.230Z,105.41
2023-04-18T08:29:17.412Z,108.54
2023-04-18T08:30:17.272Z,106.94
2023-04-18T08:31:17.380Z,110.34
2023-04-18T08:32:17.464Z,110.47
2023-04-18T08:33:17.442Z,113.47
2023-04-18T08:34:17.466Z,157.29
2023-04-18T08:35:17.513Z,182.94
2023-04-18T08:36:17.600Z,170.05
2023-04-18T08:37:17.571Z,159.74
2023-04-18T08:38:17.614Z,150.85
2023-04-18T08:39:17.630Z,146.62
2023-04-18T08:40:27.229Z,144.50
2023-04-18T08:41:17.755Z,145.02
2023-04-18T08:42:17.643Z,145.08
2023-04-18T08:43:17.657Z,146.14
2023-04-18T08:44:18.473Z,150.30
2023-04-18T08:45:18.681Z,145.16
2023-04-18T08:46:17.669Z,147.08
2023-04-18T08:47:17.596Z,148.94
2023-04-18T08:48:17.626Z,153.40
2023-04-18T08:49:17.617Z,161.16
2023-04-18T08:50:17.615Z,165.50
2023-04-18T08:51:17.564Z,165.16
2023-04-18T08:52:17.639Z,166.71
2023-04-18T08:53:17.559Z,168.12
2023-04-18T08:54:17.601Z,169.83
2023-04-18T08:55:17.703Z,174.21
2023-04-18T08:56:17.576Z,144.55
2023-04-18T08:57:17.568Z,25.28
2023-04-18T08:58:17.558Z,0.00
2023-04-18T08:59:17.581Z,0.00
2023-04-18T09:00:17.597Z,0.00
2023-04-18T09:01:17.596Z,0.00
2023-04-18T09:02:17.622Z,0.00
2023-04-18T09:03:17.590Z,7.23
2023-04-18T09:04:17.570Z,25.00
2023-04-18T09:05:17.610Z,34.82
2023-04-18T09:06:17.600Z,24.84
2023-04-18T09:07:17.512Z,54.79
2023-04-18T09:08:17.462Z,54.15
2023-04-18T09:09:17.498Z,75.48
2023-04-18T09:10:17.473Z,86.05
2023-04-18T09:11:17.484Z,73.65
2023-04-18T09:12:17.420Z,101.30
2023-04-18T09:13:17.476Z,123.14
2023-04-18T09:14:17.473Z,135.67
2023-04-18T09:15:17.402Z,141.45
2023-04-18T09:16:17.482Z,176.14
2023-04-18T09:17:17.412Z,203.84
2023-04-18T09:18:17.442Z,240.03
2023-04-18T09:19:17.704Z,243.14
2023-04-18T09:20:17.438Z,238.70
2023-04-18T09:21:17.423Z,229.74
2023-04-18T09:22:17.390Z,241.85
2023-04-18T09:23:17.607Z,239.93
2023-04-18T09:24:17.360Z,250.00
2023-04-18T09:25:17.363Z,249.29
2023-04-18T09:26:17.360Z,248.34
2023-04-18T09:27:17.365Z,249.92
2023-04-18T09:28:17.406Z,250.00
2023-04-18T09:29:17.447Z,250.00
2023-04-18T09:30:17.482Z,245.42
2023-04-18T09:31:17.541Z,243.56
2023-04-18T09:32:17.577Z,244.45
2023-04-18T09:33:17.636Z,245.69
2023-04-18T09:34:17.670Z,250.37
2023-04-18T09:35:17.684Z,260.16
2023-04-18T09:36:17.710Z,274.85
2023-04-18T09:37:17.756Z,276.28
2023-04-18T09:38:17.841Z,264.89
2023-04-18T09:39:17.823Z,244.87
2023-04-18T09:40:17.833Z,239.34
2023-04-18T09:41:20.072Z,253.14
2023-04-18T09:42:17.884Z,266.50
2023-04-18T09:43:17.881Z,282.82
2023-04-18T09:44:17.981Z,278.35
2023-04-18T09:45:17.824Z,271.05
2023-04-18T09:46:17.970Z,260.54
2023-04-18T09:47:17.872Z,247.90
2023-04-18T09:48:17.809Z,239.30
2023-04-18T09:49:18.129Z,245.25
2023-04-18T09:50:17.798Z,241.19
2023-04-18T09:51:17.883Z,237.67
2023-04-18T09:52:17.814Z,248.23
2023-04-18T09:53:20.155Z,247.55
2023-04-18T09:54:17.773Z,245.55
2023-04-18T09:55:17.796Z,240.94
2023-04-18T09:56:17.743Z,238.65
2023-04-18T09:57:17.845Z,237.96
2023-04-18T09:58:17.740Z,236.55
2023-04-18T09:59:18.675Z,234.69
2023-04-18T10:00:17.750Z,234.78
2023-04-18T10:01:17.819Z,234.57
2023-04-18T10:02:17.730Z,232.95
2023-04-18T10:03:17.870Z,229.09
2023-04-18T10:04:17.916Z,229.13
2023-04-18T10:05:20.763Z,227.33
2023-04-18T10:06:17.752Z,227.05
2023-04-18T10:07:17.655Z,223.07
2023-04-18T10:08:17.673Z,216.52
2023-04-18T10:09:17.639Z,201.57
2023-04-18T10:10:17.658Z,196.52
2023-04-18T10:11:19.215Z,200.15
2023-04-18T10:12:17.736Z,199.15
2023-04-18T10:13:17.713Z,193.57
2023-04-18T10:14:17.897Z,196.60
2023-04-18T10:15:17.765Z,196.19
2023-04-18T10:16:17.790Z,194.30
2023-04-18T10:17:17.770Z,191.21
2023-04-18T10:18:17.845Z,191.05
2023-04-18T10:19:17.800Z,173.88
2023-04-18T10:20:17.785Z,152.46
2023-04-18T10:21:18.020Z,130.78
2023-04-18T10:22:17.924Z,110.75
2023-04-18T10:23:17.906Z,106.68
2023-04-18T10:24:17.967Z,104.42
2023-04-18T10:25:17.989Z,104.54
2023-04-18T10:26:18.006Z,101.69
2023-04-18T10:27:18.069Z,96.81
2023-04-18T10:28:18.101Z,92.96
2023-04-18T10:29:18.133Z,85.92
2023-04-18T10:30:18.161Z,80.48
2023-04-18T10:31:18.250Z,71.91
2023-04-18T10:32:18.281Z,72.91
2023-04-18T10:33:27.983Z,75.94
2023-04-18T10:34:19.374Z,71.94
2023-04-18T10:35:18.278Z,68.87
2023-04-18T10:36:18.293Z,59.70
2023-04-18T10:37:18.277Z,41.09
2023-04-18T10:38:18.303Z,36.98
2023-04-18T10:39:18.271Z,18.86
2023-04-18T10:40:18.229Z,11.10
2023-04-18T10:41:18.243Z,22.33
2023-04-18T10:42:18.279Z,25.29
2023-04-18T10:43:18.318Z,25.00
2023-04-18T10:44:18.395Z,25.18
2023-04-18T10:45:18.241Z,25.00
2023-04-18T10:46:31.088Z,25.47
2023-04-18T10:47:19.291Z,25.44
2023-04-18T10:48:18.235Z,25.33
2023-04-18T10:49:18.236Z,23.56
2023-04-18T10:50:18.232Z,21.92
2023-04-18T10:51:18.176Z,22.68
2023-04-18T10:52:18.204Z,33.73
2023-04-18T10:53:18.320Z,43.08
2023-04-18T10:54:18.189Z,52.71
2023-04-18T10:55:18.259Z,59.87
2023-04-18T10:56:18.169Z,65.41
2023-04-18T10:57:18.273Z,70.79
2023-04-18T10:58:18.134Z,75.77
2023-04-18T10:59:18.165Z,80.52
2023-04-18T11:00:18.100Z,85.07
2023-04-18T11:01:18.150Z,90.08
2023-04-18T11:02:18.169Z,92.41
2023-04-18T11:03:18.250Z,93.47
2023-04-18T11:04:18.407Z,95.89
2023-04-18T11:05:18.219Z,100.36
2023-04-18T11:06:18.328Z,103.42
2023-04-18T11:07:18.312Z,113.48
2023-04-18T11:08:18.461Z,115.98
2023-04-18T11:09:18.486Z,120.91
2023-04-18T11:10:18.510Z,124.35
2023-04-18T11:11:18.595Z,125.74
2023-04-18T11:12:18.555Z,119.68
2023-04-18T11:13:18.638Z,113.83
2023-04-18T11:14:18.711Z,113.27
2023-04-18T11:15:18.746Z,101.70
2023-04-18T11:16:18.857Z,106.51
2023-04-18T11:17:18.821Z,108.30
2023-04-18T11:18:18.906Z,113.41
2023-04-18T11:19:18.921Z,114.48
2023-04-18T11:20:19.015Z,111.43
2023-04-18T11:21:19.070Z,115.19
2023-04-18T11:22:19.082Z,103.85
2023-04-18T11:23:19.125Z,95.00
2023-04-18T11:24:19.202Z,105.33
2023-04-18T11:25:19.274Z,112.60
2023-04-18T11:26:19.343Z,117.02
2023-04-18T11:27:19.411Z,123.91
2023-04-18T11:28:19.478Z,128.00
2023-04-18T11:29:19.504Z,131.19
2023-04-18T11:30:19.552Z,131.22
2023-04-18T11:31:19.593Z,121.04
2023-04-18T11:32:19.709Z,121.80
2023-04-18T11:33:19.952Z,121.67
2023-04-18T11:34:19.748Z,125.30
2023-04-18T11:35:19.816Z,126.35
2023-04-18T11:36:19.955Z,127.92
2023-04-18T11:37:19.905Z,127.55
2023-04-18T11:38:20.833Z,124.41
2023-04-18T11:39:20.007Z,121.93
2023-04-18T11:40:20.180Z,117.35
2023-04-18T11:41:20.202Z,118.05
2023-04-18T11:42:20.147Z,119.11
2023-04-18T11:43:20.225Z,118.49
2023-04-18T11:44:20.250Z,118.82
2023-04-18T11:45:20.360Z,119.86
2023-04-18T11:46:20.465Z,117.29
2023-04-18T11:47:20.500Z,119.42
2023-04-18T11:48:20.460Z,115.87
2023-04-18T11:49:20.532Z,113.16
2023-04-18T11:50:20.562Z,113.53
2023-04-18T11:51:20.632Z,114.93
2023-04-18T11:52:20.710Z,120.31
2023-04-18T11:53:20.704Z,120.56
2023-04-18T11:54:20.801Z,123.47
2023-04-18T11:55:20.820Z,124.41
2023-04-18T11:56:20.875Z,118.78
2023-04-18T11:57:20.898Z,118.96
2023-04-18T11:58:20.971Z,121.82
2023-04-18T11:59:20.975Z,121.54
2023-04-18T12:00:21.064Z,116.80
2023-04-18T12:01:21.057Z,116.04
2023-04-18T12:02:21.260Z,117.34
2023-04-18T12:03:21.427Z,116.33
2023-04-18T12:04:21.524Z,115.05
2023-04-18T12:05:21.622Z,116.32
2023-04-18T12:06:21.332Z,112.44
2023-04-18T12:07:21.347Z,113.19
2023-04-18T12:08:21.400Z,110.97
2023-04-18T12:09:21.536Z,106.79
2023-04-18T12:10:21.515Z,101.45
2023-04-18T12:11:21.589Z,102.23
2023-04-18T12:12:21.603Z,104.86
2023-04-18T12:13:21.655Z,107.25
2023-04-18T12:14:21.848Z,98.06
2023-04-18T12:15:21.767Z,84.87
2023-04-18T12:16:21.854Z,80.44
2023-04-18T12:17:21.859Z,80.91
2023-04-18T12:18:21.868Z,81.53
2023-04-18T12:19:21.930Z,79.10
2023-04-18T12:20:21.924Z,79.95
2023-04-18T12:21:22.010Z,78.71
2023-04-18T12:22:22.084Z,76.68
2023-04-18T12:23:22.097Z,71.57
2023-04-18T12:24:22.176Z,70.84
2023-04-18T12:25:24.388Z,66.10
2023-04-18T12:26:22.201Z,66.12
2023-04-18T12:27:22.196Z,62.11
2023-04-18T12:28:22.197Z,57.56
2023-04-18T12:29:22.214Z,50.11
2023-04-18T12:30:22.168Z,46.59
2023-04-18T12:31:22.234Z,48.47
2023-04-18T12:32:22.214Z,49.86
2023-04-18T12:33:22.206Z,50.98
2023-04-18T12:34:22.165Z,46.52
2023-04-18T12:35:22.120Z,45.53
2023-04-18T12:36:22.132Z,51.89
2023-04-18T12:37:22.122Z,50.09
2023-04-18T12:38:22.180Z,55.57
2023-04-18T12:39:22.160Z,54.96
2023-04-18T12:40:22.160Z,57.57
2023-04-18T12:41:22.202Z,58.95
2023-04-18T12:42:22.250Z,56.54
2023-04-18T12:43:22.305Z,59.13
2023-04-18T12:44:22.390Z,60.18
2023-04-18T12:45:22.542Z,57.86
2023-04-18T12:46:22.498Z,63.79
2023-04-18T12:47:22.554Z,58.87
2023-04-18T12:48:22.563Z,57.65
2023-04-18T12:49:22.845Z,60.61
2023-04-18T12:50:22.753Z,57.48
2023-04-18T12:51:22.779Z,57.48
2023-04-18T12:52:22.842Z,60.11
2023-04-18T12:53:22.869Z,61.56
2023-04-18T12:54:22.926Z,63.79
2023-04-18T12:55:23.073Z,63.55
2023-04-18T12:56:23.089Z,60.14
2023-04-18T12:57:23.043Z,57.77
2023-04-18T12:58:23.125Z,60.73
2023-04-18T12:59:23.192Z,61.40
2023-04-18T13:00:23.244Z,61.05
2023-04-18T13:01:23.398Z,60.46
2023-04-18T13:02:23.483Z,58.81
2023-04-18T13:03:23.590Z,56.92
2023-04-18T13:04:23.580Z,59.32
2023-04-18T13:05:23.546Z,63.56
2023-04-18T13:06:23.543Z,61.66
2023-04-18T13:07:23.616Z,61.27
2023-04-18T13:08:23.796Z,64.92
2023-04-18T13:09:23.784Z,60.89
2023-04-18T13:10:23.729Z,54.12
2023-04-18T13:11:23.828Z,58.53
2023-04-18T13:12:23.881Z,53.91
2023-04-18T13:13:23.909Z,49.40
2023-04-18T13:14:23.995Z,36.83
2023-04-18T13:15:24.050Z,34.76
2023-04-18T13:16:24.121Z,33.02
2023-04-18T13:17:24.164Z,37.38
2023-04-18T13:18:24.164Z,37.15
2023-04-18T13:19:24.184Z,36.89
2023-04-18T13:20:24.258Z,39.91
2023-04-18T13:21:24.300Z,30.16
2023-04-18T13:22:24.390Z,28.98
2023-04-18T13:23:24.468Z,26.67
2023-04-18T13:24:24.474Z,29.86
2023-04-18T13:25:24.549Z,25.04
2023-04-18T13:26:24.582Z,25.00
2023-04-18T13:27:24.638Z,25.67
2023-04-18T13:28:24.706Z,25.00
2023-04-18T13:29:24.752Z,26.93
2023-04-18T13:30:24.815Z,26.62
2023-04-18T13:31:24.891Z,27.31
2023-04-18T13:32:24.961Z,28.18
2023-04-18T13:33:24.983Z,36.12
2023-04-18T13:34:25.033Z,37.06
2023-04-18T13:35:25.104Z,41.34
2023-04-18T13:36:25.165Z,45.19
2023-04-18T13:37:25.215Z,51.37
2023-04-18T13:38:25.289Z,56.91
2023-04-18T13:39:25.361Z,64.50
2023-04-18T13:40:25.391Z,66.92
2023-04-18T13:41:25.462Z,67.16
2023-04-18T13:42:25.456Z,67.08
2023-04-18T13:43:25.531Z,64.98
2023-04-18T13:44:25.600Z,72.63
2023-04-18T13:45:25.715Z,75.47
2023-04-18T13:46:25.816Z,75.14
2023-04-18T13:47:25.777Z,73.76
2023-04-18T13:48:25.910Z,74.89
2023-04-18T13:49:25.945Z,80.66
2023-04-18T13:50:25.934Z,81.69
2023-04-18T13:51:25.995Z,82.70
2023-04-18T13:52:26.083Z,81.43
2023-04-18T13:53:26.154Z,79.40
2023-04-18T13:54:26.077Z,78.67
2023-04-18T13:55:26.116Z,85.36
2023-04-18T13:56:26.116Z,93.75
2023-04-18T13:57:26.186Z,97.50
2023-04-18T13:58:26.256Z,98.86
2023-04-18T13:59:26.205Z,102.74
2023-04-18T14:00:26.270Z,105.90
2023-04-18T14:01:26.276Z,109.04
2023-04-18T14:02:26.460Z,111.42
2023-04-18T14:03:26.418Z,114.17
2023-04-18T14:04:26.543Z,116.53
2023-04-18T14:05:26.355Z,118.17
2023-04-18T14:06:26.375Z,117.02
2023-04-18T14:07:26.368Z,118.78
2023-04-18T14:08:26.379Z,118.80
2023-04-18T14:09:26.413Z,122.40
2023-04-18T14:10:26.447Z,128.04
2023-04-18T14:11:26.466Z,134.13
2023-04-18T14:12:26.483Z,135.17
2023-04-18T14:13:26.474Z,138.63
2023-04-18T14:14:27.153Z,143.24
2023-04-18T14:15:26.545Z,146.49
2023-04-18T14:16:26.499Z,146.90
2023-04-18T14:17:26.534Z,150.36
2023-04-18T14:18:26.541Z,152.07
2023-04-18T14:19:26.586Z,152.56
2023-04-18T14:20:26.678Z,156.55
2023-04-18T14:21:26.649Z,161.96
2023-04-18T14:22:26.701Z,163.12
2023-04-18T14:23:26.694Z,165.87
2023-04-18T14:24:26.697Z,167.76
2023-04-18T14:25:26.738Z,169.45
2023-04-18T14:26:26.815Z,170.11
2023-04-18T14:27:26.804Z,171.48
2023-04-18T14:28:26.779Z,172.39
2023-04-18T14:29:26.810Z,174.75
2023-04-18T14:30:26.829Z,175.33
2023-04-18T14:31:26.817Z,176.20
2023-04-18T14:32:26.887Z,175.71
2023-04-18T14:33:26.983Z,178.47
2023-04-18T14:34:27.084Z,179.01
2023-04-18T14:35:27.217Z,178.42
2023-04-18T14:36:27.265Z,179.63
2023-04-18T14:37:27.309Z,178.07
2023-04-18T14:38:27.295Z,179.25
2023-04-18T14:39:27.309Z,180.43
2023-04-18T14:40:27.288Z,180.02
2023-04-18T14:41:27.288Z,181.82
2023-04-18T14:42:27.266Z,180.92
2023-04-18T14:43:27.276Z,182.85
2023-04-18T14:44:27.281Z,183.27
2023-04-18T14:45:27.329Z,182.08
2023-04-18T14:46:27.337Z,179.97
2023-04-18T14:47:27.412Z,180.09
2023-04-18T14:48:27.383Z,180.46
2023-04-18T14:49:27.337Z,181.27
2023-04-18T14:50:27.374Z,181.63
2023-04-18T14:51:27.329Z,181.26
2023-04-18T14:52:27.361Z,182.75
2023-04-18T14:53:27.426Z,182.40
2023-04-18T14:54:27.493Z,181.88
2023-04-18T14:55:27.677Z,181.94
2023-04-18T14:56:27.581Z,181.81
2023-04-18T14:57:30.231Z,182.33
2023-04-18T14:58:27.810Z,182.07
2023-04-18T14:59:27.827Z,182.04
2023-04-18T15:00:27.816Z,183.49
2023-04-18T15:01:27.836Z,182.45
2023-04-18T15:02:28.048Z,182.63
2023-04-18T15:03:28.050Z,182.25
2023-04-18T15:04:28.115Z,182.15
2023-04-18T15:05:27.899Z,181.88
2023-04-18T15:06:27.994Z,182.35
2023-04-18T15:07:28.016Z,183.63
2023-04-18T15:08:28.083Z,183.12
2023-04-18T15:09:28.200Z,182.87
2023-04-18T15:10:28.173Z,183.20
2023-04-18T15:11:28.262Z,180.25
2023-04-18T15:12:28.259Z,183.01
2023-04-18T15:13:28.302Z,183.42
2023-04-18T15:14:28.354Z,182.95
2023-04-18T15:15:28.426Z,183.02
2023-04-18T15:16:28.522Z,182.02
2023-04-18T15:17:28.531Z,182.15
2023-04-18T15:18:28.537Z,182.16
2023-04-18T15:19:28.651Z,182.90
2023-04-18T15:20:28.677Z,181.68
2023-04-18T15:21:28.713Z,182.80
2023-04-18T15:22:28.806Z,182.17
2023-04-18T15:23:28.862Z,184.98
2023-04-18T15:24:28.920Z,182.29
2023-04-18T15:25:28.948Z,182.64
2023-04-18T15:26:30.462Z,183.47
2023-04-18T15:27:28.938Z,185.03
2023-04-18T15:28:28.940Z,183.37
2023-04-18T15:29:28.963Z,182.96
2023-04-18T15:30:28.928Z,184.37
2023-04-18T15:31:28.982Z,184.80
2023-04-18T15:32:28.956Z,185.08
2023-04-18T15:33:28.928Z,184.52
2023-04-18T15:34:28.889Z,184.52
2023-04-18T15:35:28.920Z,185.32
2023-04-18T15:36:28.872Z,184.45
2023-04-18T15:37:28.933Z,184.47
2023-04-18T15:38:29.670Z,184.16
2023-04-18T15:39:28.890Z,185.25
2023-04-18T15:40:28.874Z,184.14
2023-04-18T15:41:28.861Z,183.46
2023-04-18T15:42:28.839Z,183.86
2023-04-18T15:43:28.859Z,183.51
2023-04-18T15:44:28.860Z,184.05
2023-04-18T15:45:28.843Z,183.19
2023-04-18T15:46:28.893Z,183.11
2023-04-18T15:47:28.829Z,182.78
2023-04-18T15:48:28.810Z,183.95
2023-04-18T15:49:28.807Z,183.37
2023-04-18T15:50:29.216Z,183.19
2023-04-18T15:51:28.767Z,182.86
2023-04-18T15:52:28.812Z,183.63
2023-04-18T15:53:28.784Z,183.49
2023-04-18T15:54:28.803Z,183.53
2023-04-18T15:55:28.791Z,184.09
2023-04-18T15:56:29.382Z,184.18
2023-04-18T15:57:28.756Z,182.01
2023-04-18T15:58:28.762Z,182.91
2023-04-18T15:59:28.746Z,182.35
2023-04-18T16:00:28.764Z,182.13
2023-04-18T16:01:28.754Z,182.84
2023-04-18T16:02:28.833Z,183.20
2023-04-18T16:03:28.991Z,184.02
2023-04-18T16:04:29.002Z,183.01
2023-04-18T16:05:28.869Z,181.54
2023-04-18T16:06:28.866Z,182.61
2023-04-18T16:07:28.873Z,180.42
2023-04-18T16:08:29.912Z,180.52
2023-04-18T16:09:29.017Z,180.25
2023-04-18T16:10:29.011Z,181.49
2023-04-18T16:11:29.043Z,181.72
2023-04-18T16:12:29.034Z,182.12
2023-04-18T16:13:29.107Z,181.68
2023-04-18T16:14:29.009Z,181.33
2023-04-18T16:15:29.051Z,182.10
2023-04-18T16:16:29.203Z,182.09
2023-04-18T16:17:29.230Z,181.37
2023-04-18T16:18:29.295Z,181.61
2023-04-18T16:19:29.393Z,182.44
2023-04-18T16:20:29.338Z,181.47
2023-04-18T16:21:29.299Z,180.60
2023-04-18T16:22:29.298Z,181.77
2023-04-18T16:23:29.334Z,180.81
2023-04-18T16:24:29.427Z,182.27
2023-04-18T16:25:29.399Z,180.90
2023-04-18T16:26:29.450Z,181.31
2023-04-18T16:27:29.415Z,181.86
2023-04-18T16:28:29.370Z,179.47
2023-04-18T16:29:29.473Z,181.49
2023-04-18T16:30:29.443Z,182.21
2023-04-18T16:31:29.530Z,180.87
2023-04-18T16:32:29.513Z,181.11
2023-04-18T16:33:29.653Z,181.01
2023-04-18T16:34:29.426Z,182.13
2023-04-18T16:35:29.543Z,179.45
2023-04-18T16:36:29.555Z,181.35
2023-04-18T16:37:29.664Z,181.48
2023-04-18T16:38:29.681Z,183.04
2023-04-18T16:39:29.728Z,181.32
2023-04-18T16:40:29.670Z,180.50
2023-04-18T16:41:29.653Z,180.95
2023-04-18T16:42:29.652Z,181.65
2023-04-18T16:43:29.750Z,181.21
2023-04-18T16:44:29.777Z,182.04
2023-04-18T16:45:29.900Z,180.31
2023-04-18T16:46:29.880Z,180.99
2023-04-18T16:47:29.818Z,180.70
2023-04-18T16:48:29.792Z,180.61
2023-04-18T16:49:29.840Z,180.30
2023-04-18T16:50:29.874Z,180.39
2023-04-18T16:51:30.028Z,181.39
2023-04-18T16:52:29.991Z,181.61
2023-04-18T16:53:30.020Z,179.14
2023-04-18T16:54:29.991Z,181.20
2023-04-18T16:55:29.962Z,179.33
2023-04-18T16:56:29.962Z,179.30
2023-04-18T16:57:30.079Z,180.32
2023-04-18T16:58:30.029Z,180.62
2023-04-18T16:59:30.107Z,179.26
2023-04-18T17:00:30.078Z,181.03
